sensor_id;sensor_type;location;lat;lon;timestamp;pressure;altitude;pressure_sealevel;temperature;humidity
12763;BME280;6445;52.490;13.378;2023-05-09T00:00:28;51809.94;;;-146.10;69.12
12763;BME280;6445;52.490;13.378;2023-05-09T00:02:54;51825.94;;;-146.10;69.57
12763;BME280;6445;52.490;13.378;2023-05-09T00:05:20;51807.94;;;-146.10;69.96
12763;BME280;6445;52.490;13.378;2023-05-09T00:07:46;51801.94;;;-146.10;70.12
12763;BME280;6445;52.490;13.378;2023-05-09T00:10:11;51831.94;;;-146.10;70.97
12763;BME280;6445;52.490;13.378;2023-05-09T00:12:36;51813.94;;;-146.10;70.91
12763;BME280;6445;52.490;13.378;2023-05-09T00:15:02;51791.91;;;-146.10;71.39
12763;BME280;6445;52.490;13.378;2023-05-09T00:17:27;51813.94;;;-146.10;72.56
12763;BME280;6445;52.490;13.378;2023-05-09T00:19:52;51797.91;;;-146.10;72.32
12763;BME280;6445;52.490;13.378;2023-05-09T00:22:18;51775.91;;;-146.10;72.63
12763;BME280;6445;52.490;13.378;2023-05-09T00:24:47;51795.91;;;-146.10;72.23
12763;BME280;6445;52.490;13.378;2023-05-09T00:27:13;51765.91;;;-146.10;72.75
12763;BME280;6445;52.490;13.378;2023-05-09T00:29:38;51791.91;;;-146.10;73.01
12763;BME280;6445;52.490;13.378;2023-05-09T00:32:04;51763.91;;;-146.10;73.04
12763;BME280;6445;52.490;13.378;2023-05-09T00:34:29;51779.91;;;-146.10;73.26
12763;BME280;6445;52.490;13.378;2023-05-09T00:36:54;51799.94;;;-146.10;73.48
12763;BME280;6445;52.490;13.378;2023-05-09T00:39:20;51781.91;;;-146.10;72.51
12763;BME280;6445;52.490;13.378;2023-05-09T00:41:45;51775.91;;;-146.10;72.63
12763;BME280;6445;52.490;13.378;2023-05-09T00:44:10;51771.91;;;-146.10;72.30
12763;BME280;6445;52.490;13.378;2023-05-09T00:46:35;51751.91;;;-146.10;72.33
12763;BME280;6445;52.490;13.378;2023-05-09T00:49:01;51779.91;;;-146.10;71.90
12763;BME280;6445;52.490;13.378;2023-05-09T00:51:27;51757.91;;;-146.10;71.39
12763;BME280;6445;52.490;13.378;2023-05-09T00:53:52;51791.91;;;-146.10;72.11
12763;BME280;6445;52.490;13.378;2023-05-09T00:56:18;51799.94;;;-146.10;72.04
12763;BME280;6445;52.490;13.378;2023-05-09T00:58:44;51777.91;;;-146.10;71.50
12763;BME280;6445;52.490;13.378;2023-05-09T01:01:09;51785.91;;;-146.10;71.43
12763;BME280;6445;52.490;13.378;2023-05-09T01:03:34;51775.91;;;-146.10;71.26
12763;BME280;6445;52.490;13.378;2023-05-09T01:06:05;51779.91;;;-146.10;71.17
12763;BME280;6445;52.490;13.378;2023-05-09T01:08:46;51777.91;;;-146.10;70.93
12763;BME280;6445;52.490;13.378;2023-05-09T01:11:51;51781.91;;;-146.10;70.57
12763;BME280;6445;52.490;13.378;2023-05-09T01:14:36;51801.94;;;-146.10;70.67
12763;BME280;6445;52.490;13.378;2023-05-09T01:19:58;51789.91;;;-146.10;71.46
12763;BME280;6445;52.490;13.378;2023-05-09T01:22:29;51785.91;;;-146.10;70.99
12763;BME280;6445;52.490;13.378;2023-05-09T01:27:52;51779.91;;;-146.10;70.65
12763;BME280;6445;52.490;13.378;2023-05-09T01:30:24;51763.91;;;-146.10;72.29
12763;BME280;6445;52.490;13.378;2023-05-09T01:32:51;51787.91;;;-146.10;71.50
12763;BME280;6445;52.490;13.378;2023-05-09T01:35:20;51765.91;;;-146.10;72.07
12763;BME280;6445;52.490;13.378;2023-05-09T01:37:48;51771.91;;;-146.10;71.55
12763;BME280;6445;52.490;13.378;2023-05-09T01:40:16;51819.94;;;-146.10;70.87
12763;BME280;6445;52.490;13.378;2023-05-09T01:42:54;51783.91;;;-146.10;70.34
12763;BME280;6445;52.490;13.378;2023-05-09T01:45:21;51773.91;;;-146.10;70.42
12763;BME280;6445;52.490;13.378;2023-05-09T01:47:48;51781.91;;;-146.10;69.90
12763;BME280;6445;52.490;13.378;2023-05-09T01:50:16;51781.91;;;-146.10;69.75
12763;BME280;6445;52.490;13.378;2023-05-09T01:52:42;51799.94;;;-146.10;69.32
12763;BME280;6445;52.490;13.378;2023-05-09T01:55:12;51817.94;;;-146.10;69.47
12763;BME280;6445;52.490;13.378;2023-05-09T01:57:38;51817.94;;;-146.10;68.50
12763;BME280;6445;52.490;13.378;2023-05-09T02:00:05;51803.94;;;-146.10;68.10
12763;BME280;6445;52.490;13.378;2023-05-09T02:02:32;51797.91;;;-146.10;67.32
12763;BME280;6445;52.490;13.378;2023-05-09T02:04:57;51779.91;;;-146.10;67.38
12763;BME280;6445;52.490;13.378;2023-05-09T02:07:23;51807.94;;;-146.10;67.02
12763;BME280;6445;52.490;13.378;2023-05-09T02:09:49;51787.91;;;-146.10;66.43
12763;BME280;6445;52.490;13.378;2023-05-09T02:12:17;51803.94;;;-146.10;66.05
12763;BME280;6445;52.490;13.378;2023-05-09T02:14:43;51787.91;;;-146.10;65.85
12763;BME280;6445;52.490;13.378;2023-05-09T02:17:08;51819.94;;;-146.10;65.24
12763;BME280;6445;52.490;13.378;2023-05-09T02:19:34;51801.94;;;-146.10;65.12
12763;BME280;6445;52.490;13.378;2023-05-09T02:22:01;51785.91;;;-146.10;65.16
12763;BME280;6445;52.490;13.378;2023-05-09T02:24:26;51803.94;;;-146.10;64.47
12763;BME280;6445;52.490;13.378;2023-05-09T02:26:53;51781.91;;;-146.10;64.89
12763;BME280;6445;52.490;13.378;2023-05-09T02:29:20;51823.94;;;-146.10;64.12
12763;BME280;6445;52.490;13.378;2023-05-09T02:31:47;51805.94;;;-146.10;64.14
12763;BME280;6445;52.490;13.378;2023-05-09T02:34:15;51801.94;;;-146.10;63.71
12763;BME280;6445;52.490;13.378;2023-05-09T02:36:40;51809.94;;;-146.10;63.81
12763;BME280;6445;52.490;13.378;2023-05-09T02:39:06;51803.94;;;-146.10;63.78
12763;BME280;6445;52.490;13.378;2023-05-09T02:41:31;51805.94;;;-146.10;62.94
12763;BME280;6445;52.490;13.378;2023-05-09T02:43:56;51789.91;;;-146.10;63.15
12763;BME280;6445;52.490;13.378;2023-05-09T02:46:22;51813.94;;;-146.10;63.44
12763;BME280;6445;52.490;13.378;2023-05-09T02:48:47;51789.91;;;-146.10;63.61
12763;BME280;6445;52.490;13.378;2023-05-09T02:51:13;51805.94;;;-146.10;63.46
12763;BME280;6445;52.490;13.378;2023-05-09T02:53:38;51813.94;;;-146.10;63.54
12763;BME280;6445;52.490;13.378;2023-05-09T02:56:03;51789.91;;;-146.10;63.56
12763;BME280;6445;52.490;13.378;2023-05-09T02:58:29;51789.91;;;-146.10;63.55
12763;BME280;6445;52.490;13.378;2023-05-09T03:00:54;51805.94;;;-146.10;63.48
12763;BME280;6445;52.490;13.378;2023-05-09T03:03:19;51807.94;;;-146.10;64.07
12763;BME280;6445;52.490;13.378;2023-05-09T03:05:46;51805.94;;;-146.10;63.88
12763;BME280;6445;52.490;13.378;2023-05-09T03:08:11;51787.91;;;-146.10;63.75
12763;BME280;6445;52.490;13.378;2023-05-09T03:10:36;51781.91;;;-146.10;63.66
12763;BME280;6445;52.490;13.378;2023-05-09T03:13:01;51799.94;;;-146.10;63.73
12763;BME280;6445;52.490;13.378;2023-05-09T03:15:27;51807.94;;;-146.10;64.02
12763;BME280;6445;52.490;13.378;2023-05-09T03:17:52;51771.91;;;-146.10;64.17
12763;BME280;6445;52.490;13.378;2023-05-09T03:20:17;51793.91;;;-146.10;63.98
12763;BME280;6445;52.490;13.378;2023-05-09T03:22:42;51809.94;;;-146.10;64.28
12763;BME280;6445;52.490;13.378;2023-05-09T03:25:08;51799.94;;;-146.10;64.33
12763;BME280;6445;52.490;13.378;2023-05-09T03:27:33;51773.91;;;-146.10;64.33
12763;BME280;6445;52.490;13.378;2023-05-09T03:29:58;51801.94;;;-146.10;64.40
12763;BME280;6445;52.490;13.378;2023-05-09T03:32:25;51801.94;;;-146.10;64.76
12763;BME280;6445;52.490;13.378;2023-05-09T03:34:50;51805.94;;;-146.10;64.55
12763;BME280;6445;52.490;13.378;2023-05-09T03:37:15;51779.91;;;-146.10;64.82
12763;BME280;6445;52.490;13.378;2023-05-09T03:39:41;51805.94;;;-146.10;65.10
12763;BME280;6445;52.490;13.378;2023-05-09T03:42:06;51813.94;;;-146.10;65.51
12763;BME280;6445;52.490;13.378;2023-05-09T03:44:31;51785.91;;;-146.10;65.72
12763;BME280;6445;52.490;13.378;2023-05-09T03:46:56;51779.91;;;-146.10;65.84
12763;BME280;6445;52.490;13.378;2023-05-09T03:49:22;51801.94;;;-146.10;66.48
12763;BME280;6445;52.490;13.378;2023-05-09T03:51:47;51775.91;;;-146.10;66.49
12763;BME280;6445;52.490;13.378;2023-05-09T03:54:12;51787.91;;;-146.10;66.80
12763;BME280;6445;52.490;13.378;2023-05-09T03:56:37;51799.94;;;-146.10;66.86
12763;BME280;6445;52.490;13.378;2023-05-09T03:59:03;51789.91;;;-146.10;67.25
12763;BME280;6445;52.490;13.378;2023-05-09T04:01:28;51779.91;;;-146.10;67.00
12763;BME280;6445;52.490;13.378;2023-05-09T04:03:53;51787.91;;;-146.10;66.70
12763;BME280;6445;52.490;13.378;2023-05-09T04:06:21;51771.91;;;-146.10;67.36
12763;BME280;6445;52.490;13.378;2023-05-09T04:08:46;51791.91;;;-146.10;67.83
12763;BME280;6445;52.490;13.378;2023-05-09T04:11:11;51799.94;;;-146.10;67.88
12763;BME280;6445;52.490;13.378;2023-05-09T04:13:37;51793.91;;;-146.10;67.67
12763;BME280;6445;52.490;13.378;2023-05-09T04:16:02;51799.94;;;-146.10;68.12
12763;BME280;6445;52.490;13.378;2023-05-09T04:18:27;51785.91;;;-146.10;68.13
12763;BME280;6445;52.490;13.378;2023-05-09T04:20:53;51789.91;;;-146.10;67.90
12763;BME280;6445;52.490;13.378;2023-05-09T04:23:18;51773.91;;;-146.10;68.34
12763;BME280;6445;52.490;13.378;2023-05-09T04:25:43;51783.91;;;-146.10;68.14
12763;BME280;6445;52.490;13.378;2023-05-09T04:28:08;51799.94;;;-146.10;68.48
12763;BME280;6445;52.490;13.378;2023-05-09T04:30:34;51815.94;;;-146.10;68.59
12763;BME280;6445;52.490;13.378;2023-05-09T04:32:59;51777.91;;;-146.10;67.80
12763;BME280;6445;52.490;13.378;2023-05-09T04:35:25;51793.91;;;-146.10;67.86
12763;BME280;6445;52.490;13.378;2023-05-09T04:37:50;51791.91;;;-146.10;67.98
12763;BME280;6445;52.490;13.378;2023-05-09T04:40:16;51821.94;;;-146.10;68.06
12763;BME280;6445;52.490;13.378;2023-05-09T04:42:41;51787.91;;;-146.10;67.77
12763;BME280;6445;52.490;13.378;2023-05-09T04:45:07;51807.94;;;-146.10;67.52
12763;BME280;6445;52.490;13.378;2023-05-09T04:47:33;51797.91;;;-146.10;67.33
12763;BME280;6445;52.490;13.378;2023-05-09T04:49:58;51807.94;;;-146.10;67.72
12763;BME280;6445;52.490;13.378;2023-05-09T04:52:23;51801.94;;;-146.10;67.58
12763;BME280;6445;52.490;13.378;2023-05-09T04:54:49;51785.91;;;-146.10;67.05
12763;BME280;6445;52.490;13.378;2023-05-09T04:57:15;51809.94;;;-146.10;66.72
12763;BME280;6445;52.490;13.378;2023-05-09T04:59:40;51807.94;;;-146.10;66.74
12763;BME280;6445;52.490;13.378;2023-05-09T05:02:05;51807.94;;;-146.10;66.00
12763;BME280;6445;52.490;13.378;2023-05-09T05:04:30;51809.94;;;-146.10;66.22
12763;BME280;6445;52.490;13.378;2023-05-09T05:06:56;51801.94;;;-146.10;65.83
12763;BME280;6445;52.490;13.378;2023-05-09T05:09:21;51821.94;;;-146.10;65.11
12763;BME280;6445;52.490;13.378;2023-05-09T05:11:47;51837.94;;;-146.10;64.80
12763;BME280;6445;52.490;13.378;2023-05-09T05:14:12;51819.94;;;-146.10;65.33
12763;BME280;6445;52.490;13.378;2023-05-09T05:16:37;51831.94;;;-146.10;64.46
12763;BME280;6445;52.490;13.378;2023-05-09T05:19:03;51835.94;;;-146.10;64.24
12763;BME280;6445;52.490;13.378;2023-05-09T05:21:28;51827.94;;;-146.10;63.71
12763;BME280;6445;52.490;13.378;2023-05-09T05:23:53;51851.94;;;-146.10;63.76
12763;BME280;6445;52.490;13.378;2023-05-09T05:26:18;51851.94;;;-146.10;61.75
12763;BME280;6445;52.490;13.378;2023-05-09T05:28:44;51881.94;;;-146.10;58.85
12763;BME280;6445;52.490;13.378;2023-05-09T05:31:09;51885.94;;;-146.10;55.03
12763;BME280;6445;52.490;13.378;2023-05-09T05:33:34;51941.94;;;-146.10;51.00
12763;BME280;6445;52.490;13.378;2023-05-09T05:36:00;51935.94;;;-146.10;49.07
12763;BME280;6445;52.490;13.378;2023-05-09T05:38:25;51953.97;;;-146.10;46.49
12763;BME280;6445;52.490;13.378;2023-05-09T05:40:50;51947.97;;;-146.10;45.75
12763;BME280;6445;52.490;13.378;2023-05-09T05:43:15;51959.97;;;-146.10;44.80
12763;BME280;6445;52.490;13.378;2023-05-09T05:45:41;51985.97;;;-146.10;43.89
12763;BME280;6445;52.490;13.378;2023-05-09T05:48:06;51981.97;;;-146.10;43.04
12763;BME280;6445;52.490;13.378;2023-05-09T05:50:31;51983.97;;;-146.10;43.16
12763;BME280;6445;52.490;13.378;2023-05-09T05:52:56;52009.97;;;-146.10;41.69
12763;BME280;6445;52.490;13.378;2023-05-09T05:55:22;52007.97;;;-146.10;41.17
12763;BME280;6445;52.490;13.378;2023-05-09T05:57:47;52019.97;;;-146.10;41.92
12763;BME280;6445;52.490;13.378;2023-05-09T06:00:13;52011.97;;;-146.10;40.53
12763;BME280;6445;52.490;13.378;2023-05-09T06:02:42;52021.97;;;-146.10;40.05
12763;BME280;6445;52.490;13.378;2023-05-09T06:05:16;52031.97;;;-146.10;39.80
12763;BME280;6445;52.490;13.378;2023-05-09T06:07:42;52023.97;;;-146.10;39.44
12763;BME280;6445;52.490;13.378;2023-05-09T06:10:08;52055.97;;;-146.10;38.32
12763;BME280;6445;52.490;13.378;2023-05-09T06:12:33;52059.97;;;-146.10;38.32
12763;BME280;6445;52.490;13.378;2023-05-09T06:14:59;52061.97;;;-146.10;38.14
12763;BME280;6445;52.490;13.378;2023-05-09T06:17:24;52078.00;;;-146.10;37.30
12763;BME280;6445;52.490;13.378;2023-05-09T06:19:49;52072.00;;;-146.10;37.50
12763;BME280;6445;52.490;13.378;2023-05-09T06:22:15;52076.00;;;-146.10;37.02
12763;BME280;6445;52.490;13.378;2023-05-09T06:24:40;52059.97;;;-146.10;37.61
12763;BME280;6445;52.490;13.378;2023-05-09T06:27:05;52063.97;;;-146.10;37.42
12763;BME280;6445;52.490;13.378;2023-05-09T06:29:31;52082.00;;;-146.10;36.72
12763;BME280;6445;52.490;13.378;2023-05-09T06:31:56;52078.00;;;-146.10;36.12
12763;BME280;6445;52.490;13.378;2023-05-09T06:34:21;52063.97;;;-146.10;36.67
12763;BME280;6445;52.490;13.378;2023-05-09T06:36:46;52076.00;;;-146.10;35.96
12763;BME280;6445;52.490;13.378;2023-05-09T06:39:12;52126.00;;;-146.10;35.38
12763;BME280;6445;52.490;13.378;2023-05-09T06:41:37;52120.00;;;-146.10;35.29
12763;BME280;6445;52.490;13.378;2023-05-09T06:44:02;52106.00;;;-146.10;34.95
12763;BME280;6445;52.490;13.378;2023-05-09T06:46:28;52118.00;;;-146.10;34.80
12763;BME280;6445;52.490;13.378;2023-05-09T06:48:53;52122.00;;;-146.10;34.65
12763;BME280;6445;52.490;13.378;2023-05-09T06:51:18;52092.00;;;-146.10;34.65
12763;BME280;6445;52.490;13.378;2023-05-09T06:53:44;52120.00;;;-146.10;34.03
12763;BME280;6445;52.490;13.378;2023-05-09T06:56:09;52146.00;;;-146.10;33.65
12763;BME280;6445;52.490;13.378;2023-05-09T06:58:34;52154.00;;;-146.10;33.29
12763;BME280;6445;52.490;13.378;2023-05-09T07:01:00;52218.03;;;-146.10;32.26
12763;BME280;6445;52.490;13.378;2023-05-09T07:03:25;52202.03;;;-146.10;32.30
12763;BME280;6445;52.490;13.378;2023-05-09T07:05:51;52194.03;;;-146.10;32.00
12763;BME280;6445;52.490;13.378;2023-05-09T07:08:16;52162.00;;;-146.10;32.56
12763;BME280;6445;52.490;13.378;2023-05-09T07:10:41;52146.00;;;-146.10;33.27
12763;BME280;6445;52.490;13.378;2023-05-09T07:13:07;52174.00;;;-146.10;33.42
12763;BME280;6445;52.490;13.378;2023-05-09T07:15:32;52188.03;;;-146.10;33.04
12763;BME280;6445;52.490;13.378;2023-05-09T07:17:57;52184.03;;;-146.10;32.47
12763;BME280;6445;52.490;13.378;2023-05-09T07:20:22;52190.03;;;-146.10;32.49
12763;BME280;6445;52.490;13.378;2023-05-09T07:22:47;52166.00;;;-146.10;31.93
12763;BME280;6445;52.490;13.378;2023-05-09T07:25:13;52170.00;;;-146.10;32.38
12763;BME280;6445;52.490;13.378;2023-05-09T07:27:38;52206.03;;;-146.10;31.62
12763;BME280;6445;52.490;13.378;2023-05-09T07:30:04;52222.03;;;-146.10;31.22
12763;BME280;6445;52.490;13.378;2023-05-09T07:32:30;52232.03;;;-146.10;30.64
12763;BME280;6445;52.490;13.378;2023-05-09T07:34:55;52274.03;;;-146.10;30.51
12763;BME280;6445;52.490;13.378;2023-05-09T07:37:20;52226.03;;;-146.10;30.57
12763;BME280;6445;52.490;13.378;2023-05-09T07:39:45;52174.00;;;-146.10;31.10
12763;BME280;6445;52.490;13.378;2023-05-09T07:42:13;52194.03;;;-146.10;30.91
12763;BME280;6445;52.490;13.378;2023-05-09T07:44:39;52198.03;;;-146.10;30.42
12763;BME280;6445;52.490;13.378;2023-05-09T07:47:05;52194.03;;;-146.10;31.00
12763;BME280;6445;52.490;13.378;2023-05-09T07:49:31;52212.03;;;-146.10;30.11
12763;BME280;6445;52.490;13.378;2023-05-09T07:51:56;52254.03;;;-146.10;29.78
12763;BME280;6445;52.490;13.378;2023-05-09T07:54:22;52266.03;;;-146.10;29.68
12763;BME280;6445;52.490;13.378;2023-05-09T07:56:47;52266.03;;;-146.10;29.20
12763;BME280;6445;52.490;13.378;2023-05-09T07:59:12;52306.06;;;-146.10;28.57
12763;BME280;6445;52.490;13.378;2023-05-09T08:01:37;52278.03;;;-146.10;28.99
12763;BME280;6445;52.490;13.378;2023-05-09T08:04:03;52316.06;;;-146.10;28.10
12763;BME280;6445;52.490;13.378;2023-05-09T08:06:30;52282.03;;;-146.10;28.17
12763;BME280;6445;52.490;13.378;2023-05-09T08:08:55;52284.03;;;-146.10;28.41
12763;BME280;6445;52.490;13.378;2023-05-09T08:11:21;52262.03;;;-146.10;28.36
12763;BME280;6445;52.490;13.378;2023-05-09T08:13:46;52254.03;;;-146.10;28.62
12763;BME280;6445;52.490;13.378;2023-05-09T08:16:12;52290.06;;;-146.10;28.46
12763;BME280;6445;52.490;13.378;2023-05-09T08:18:37;52294.06;;;-146.10;28.40
12763;BME280;6445;52.490;13.378;2023-05-09T08:21:02;52288.06;;;-146.10;28.02
12763;BME280;6445;52.490;13.378;2023-05-09T08:23:28;52338.06;;;-146.10;27.46
12763;BME280;6445;52.490;13.378;2023-05-09T08:25:54;52290.06;;;-146.10;27.78
12763;BME280;6445;52.490;13.378;2023-05-09T08:28:20;52326.06;;;-146.10;27.79
12763;BME280;6445;52.490;13.378;2023-05-09T08:30:48;52320.06;;;-146.10;27.66
12763;BME280;6445;52.490;13.378;2023-05-09T08:33:14;52332.06;;;-146.10;27.34
12763;BME280;6445;52.490;13.378;2023-05-09T08:35:39;52350.06;;;-146.10;27.39
12763;BME280;6445;52.490;13.378;2023-05-09T08:38:04;52412.09;;;-146.10;26.66
12763;BME280;6445;52.490;13.378;2023-05-09T08:40:29;52446.09;;;-146.10;26.03
12763;BME280;6445;52.490;13.378;2023-05-09T08:42:59;52358.06;;;-146.10;26.73
12763;BME280;6445;52.490;13.378;2023-05-09T08:45:25;52314.06;;;-146.10;26.90
12763;BME280;6445;52.490;13.378;2023-05-09T08:47:53;52418.09;;;-146.10;26.92
12763;BME280;6445;52.490;13.378;2023-05-09T08:50:19;52312.06;;;-146.10;27.66
12763;BME280;6445;52.490;13.378;2023-05-09T08:52:45;52366.06;;;-146.10;27.32
12763;BME280;6445;52.490;13.378;2023-05-09T08:55:10;52428.09;;;-146.10;26.51
12763;BME280;6445;52.490;13.378;2023-05-09T08:57:36;52370.06;;;-146.10;26.26
12763;BME280;6445;52.490;13.378;2023-05-09T09:00:03;52444.09;;;-146.10;26.23
12763;BME280;6445;52.490;13.378;2023-05-09T09:02:31;52412.09;;;-146.10;26.29
12763;BME280;6445;52.490;13.378;2023-05-09T09:04:57;52396.09;;;-146.10;26.30
12763;BME280;6445;52.490;13.378;2023-05-09T09:07:22;52466.09;;;-146.10;25.92
12763;BME280;6445;52.490;13.378;2023-05-09T09:09:50;52450.09;;;-146.10;26.07
12763;BME280;6445;52.490;13.378;2023-05-09T09:12:16;52430.09;;;-146.10;26.15
12763;BME280;6445;52.490;13.378;2023-05-09T09:14:47;52392.09;;;-146.10;26.58
12763;BME280;6445;52.490;13.378;2023-05-09T09:17:17;52462.09;;;-146.10;25.87
12763;BME280;6445;52.490;13.378;2023-05-09T09:19:44;52406.09;;;-146.10;26.63
12763;BME280;6445;52.490;13.378;2023-05-09T09:22:15;52382.09;;;-146.10;26.86
12763;BME280;6445;52.490;13.378;2023-05-09T09:24:42;52438.09;;;-146.10;26.34
12763;BME280;6445;52.490;13.378;2023-05-09T09:27:07;52458.09;;;-146.10;26.13
12763;BME280;6445;52.490;13.378;2023-05-09T09:29:33;52356.06;;;-146.10;26.33
12763;BME280;6445;52.490;13.378;2023-05-09T09:32:02;52408.09;;;-146.10;26.27
12763;BME280;6445;52.490;13.378;2023-05-09T09:34:27;52432.09;;;-146.10;26.41
12763;BME280;6445;52.490;13.378;2023-05-09T09:36:53;52542.13;;;-146.10;24.88
12763;BME280;6445;52.490;13.378;2023-05-09T09:39:18;52478.13;;;-146.10;25.48
12763;BME280;6445;52.490;13.378;2023-05-09T09:41:43;52468.09;;;-146.10;25.54
12763;BME280;6445;52.490;13.378;2023-05-09T09:44:11;52460.09;;;-146.10;25.80
12763;BME280;6445;52.490;13.378;2023-05-09T09:49:13;52518.13;;;-146.10;25.16
12763;BME280;6445;52.490;13.378;2023-05-09T09:51:40;52552.16;;;-146.10;24.76
12763;BME280;6445;52.490;13.378;2023-05-09T09:54:09;52586.16;;;-146.10;24.45
12763;BME280;6445;52.490;13.378;2023-05-09T09:56:48;52540.13;;;-146.10;24.74
12763;BME280;6445;52.490;13.378;2023-05-09T09:59:19;52548.13;;;-146.10;24.26
12763;BME280;6445;52.490;13.378;2023-05-09T10:01:54;52572.16;;;-146.10;24.75
12763;BME280;6445;52.490;13.378;2023-05-09T10:04:20;52574.16;;;-146.10;24.92
12763;BME280;6445;52.490;13.378;2023-05-09T10:06:53;52556.16;;;-146.10;24.34
12763;BME280;6445;52.490;13.378;2023-05-09T10:09:20;52478.13;;;-146.10;24.27
12763;BME280;6445;52.490;13.378;2023-05-09T10:11:46;52426.09;;;-146.10;24.66
12763;BME280;6445;52.490;13.378;2023-05-09T10:14:13;52438.09;;;-146.10;24.90
12763;BME280;6445;52.490;13.378;2023-05-09T10:16:38;52414.09;;;-146.10;25.54
12763;BME280;6445;52.490;13.378;2023-05-09T10:19:04;52468.09;;;-146.10;25.48
12763;BME280;6445;52.490;13.378;2023-05-09T10:21:30;52548.13;;;-146.10;24.75
12763;BME280;6445;52.490;13.378;2023-05-09T10:23:57;52490.13;;;-146.10;24.60
12763;BME280;6445;52.490;13.378;2023-05-09T10:26:25;52614.16;;;-146.10;23.91
12763;BME280;6445;52.490;13.378;2023-05-09T10:28:54;52542.13;;;-146.10;24.42
12763;BME280;6445;52.490;13.378;2023-05-09T10:31:24;52522.13;;;-146.10;24.90
12763;BME280;6445;52.490;13.378;2023-05-09T10:33:51;52546.13;;;-146.10;24.77
12763;BME280;6445;52.490;13.378;2023-05-09T10:36:19;52480.13;;;-146.10;24.72
12763;BME280;6445;52.490;13.378;2023-05-09T10:38:46;52434.09;;;-146.10;25.60
12763;BME280;6445;52.490;13.378;2023-05-09T10:41:11;52514.13;;;-146.10;24.83
12763;BME280;6445;52.490;13.378;2023-05-09T10:43:37;52464.09;;;-146.10;25.19
12763;BME280;6445;52.490;13.378;2023-05-09T10:46:03;52456.09;;;-146.10;25.31
12763;BME280;6445;52.490;13.378;2023-05-09T10:48:31;52438.09;;;-146.10;25.78
12763;BME280;6445;52.490;13.378;2023-05-09T10:50:57;52430.09;;;-146.10;25.42
12763;BME280;6445;52.490;13.378;2023-05-09T10:53:39;52478.13;;;-146.10;25.12
12763;BME280;6445;52.490;13.378;2023-05-09T10:56:06;52470.13;;;-146.10;25.36
12763;BME280;6445;52.490;13.378;2023-05-09T10:58:32;52532.13;;;-146.10;25.07
12763;BME280;6445;52.490;13.378;2023-05-09T11:01:00;52570.16;;;-146.10;24.98
12763;BME280;6445;52.490;13.378;2023-05-09T11:03:28;52496.13;;;-146.10;24.70
12763;BME280;6445;52.490;13.378;2023-05-09T11:05:55;52404.09;;;-146.10;25.25
12763;BME280;6445;52.490;13.378;2023-05-09T11:08:23;52396.09;;;-146.10;25.43
12763;BME280;6445;52.490;13.378;2023-05-09T11:10:52;52436.09;;;-146.10;25.54
12763;BME280;6445;52.490;13.378;2023-05-09T11:13:22;52434.09;;;-146.10;25.49
12763;BME280;6445;52.490;13.378;2023-05-09T11:18:26;52404.09;;;-146.10;25.42
12763;BME280;6445;52.490;13.378;2023-05-09T11:20:51;52402.09;;;-146.10;25.61
12763;BME280;6445;52.490;13.378;2023-05-09T11:23:18;52410.09;;;-146.10;25.74
12763;BME280;6445;52.490;13.378;2023-05-09T11:25:47;52402.09;;;-146.10;25.93
12763;BME280;6445;52.490;13.378;2023-05-09T11:28:30;52392.09;;;-146.10;25.79
12763;BME280;6445;52.490;13.378;2023-05-09T11:31:12;52404.09;;;-146.10;25.80
12763;BME280;6445;52.490;13.378;2023-05-09T11:33:39;52380.09;;;-146.10;26.50
12763;BME280;6445;52.490;13.378;2023-05-09T11:38:43;52338.06;;;-146.10;26.54
12763;BME280;6445;52.490;13.378;2023-05-09T11:41:09;52314.06;;;-146.10;26.53
12763;BME280;6445;52.490;13.378;2023-05-09T11:43:35;52354.06;;;-146.10;26.30
12763;BME280;6445;52.490;13.378;2023-05-09T11:46:02;52356.06;;;-146.10;26.35
12763;BME280;6445;52.490;13.378;2023-05-09T11:48:27;52334.06;;;-146.10;26.32
12763;BME280;6445;52.490;13.378;2023-05-09T11:50:53;52370.06;;;-146.10;26.49
12763;BME280;6445;52.490;13.378;2023-05-09T11:53:18;52350.06;;;-146.10;26.40
12763;BME280;6445;52.490;13.378;2023-05-09T11:55:43;52346.06;;;-146.10;25.81
12763;BME280;6445;52.490;13.378;2023-05-09T11:58:08;52344.06;;;-146.10;25.94
12763;BME280;6445;52.490;13.378;2023-05-09T12:00:34;52424.09;;;-146.10;25.52
12763;BME280;6445;52.490;13.378;2023-05-09T12:03:04;52368.06;;;-146.10;25.27
12763;BME280;6445;52.490;13.378;2023-05-09T12:05:30;52366.06;;;-146.10;25.73
12763;BME280;6445;52.490;13.378;2023-05-09T12:08:01;52400.09;;;-146.10;25.06
12763;BME280;6445;52.490;13.378;2023-05-09T12:10:27;52402.09;;;-146.10;25.47
12763;BME280;6445;52.490;13.378;2023-05-09T12:12:52;52466.09;;;-146.10;24.97
12763;BME280;6445;52.490;13.378;2023-05-09T12:15:21;52370.06;;;-146.10;25.57
12763;BME280;6445;52.490;13.378;2023-05-09T12:17:46;52456.09;;;-146.10;25.60
12763;BME280;6445;52.490;13.378;2023-05-09T12:20:12;52372.06;;;-146.10;26.02
12763;BME280;6445;52.490;13.378;2023-05-09T12:22:42;52448.09;;;-146.10;25.61
12763;BME280;6445;52.490;13.378;2023-05-09T12:25:09;52412.09;;;-146.10;25.61
12763;BME280;6445;52.490;13.378;2023-05-09T12:27:36;52422.09;;;-146.10;25.24
12763;BME280;6445;52.490;13.378;2023-05-09T12:30:03;52406.09;;;-146.10;25.29
12763;BME280;6445;52.490;13.378;2023-05-09T12:32:32;52406.09;;;-146.10;25.78
12763;BME280;6445;52.490;13.378;2023-05-09T12:34:59;52406.09;;;-146.10;25.86
12763;BME280;6445;52.490;13.378;2023-05-09T12:37:24;52390.09;;;-146.10;26.03
12763;BME280;6445;52.490;13.378;2023-05-09T12:40:04;52402.09;;;-146.10;26.07
12763;BME280;6445;52.490;13.378;2023-05-09T12:42:31;52382.09;;;-146.10;26.53
12763;BME280;6445;52.490;13.378;2023-05-09T12:44:56;52474.13;;;-146.10;25.87
12763;BME280;6445;52.490;13.378;2023-05-09T12:47:25;52406.09;;;-146.10;25.79
12763;BME280;6445;52.490;13.378;2023-05-09T12:49:52;52354.06;;;-146.10;25.95